sensor_id;sensor_type;location;lat;lon;timestamp;P1;durP1;ratioP1;P2;durP2;ratioP2
25780;SDS011;13626;48.128;11.628;2023-01-26T00:00:53;22.25;;;10.07;;
25780;SDS011;13626;48.128;11.628;2023-01-26T00:03:20;23.02;;;9.85;;
25780;SDS011;13626;48.128;11.628;2023-01-26T00:05:47;26.77;;;9.30;;
25780;SDS011;13626;48.128;11.628;2023-01-26T00:08:15;24.23;;;10.05;;
25780;SDS011;13626;48.128;11.628;2023-01-26T00:10:42;24.00;;;9.98;;
25780;SDS011;13626;48.128;11.628;2023-01-26T00:13:18;25.15;;;9.75;;
25780;SDS011;13626;48.128;11.628;2023-01-26T00:15:47;19.60;;;9.23;;
25780;SDS011;13626;48.128;11.628;2023-01-26T00:18:14;22.10;;;10.43;;
25780;SDS011;13626;48.128;11.628;2023-01-26T00:20:41;22.88;;;10.27;;
25780;SDS011;13626;48.128;11.628;2023-01-26T00:23:09;22.60;;;10.32;;
25780;SDS011;13626;48.128;11.628;2023-01-26T00:25:36;21.48;;;9.85;;
25780;SDS011;13626;48.128;11.628;2023-01-26T00:28:05;21.48;;;9.52;;
25780;SDS011;13626;48.128;11.628;2023-01-26T00:30:32;21.77;;;10.38;;
25780;SDS011;13626;48.128;11.628;2023-01-26T00:32:59;24.75;;;10.27;;
25780;SDS011;13626;48.128;11.628;2023-01-26T00:35:26;24.05;;;10.30;;
25780;SDS011;13626;48.128;11.628;2023-01-26T00:37:53;24.52;;;9.82;;
25780;SDS011;13626;48.128;11.628;2023-01-26T00:40:21;28.73;;;10.93;;
25780;SDS011;13626;48.128;11.628;2023-01-26T00:42:48;23.20;;;9.27;;
25780;SDS011;13626;48.128;11.628;2023-01-26T00:45:15;24.45;;;10.60;;
25780;SDS011;13626;48.128;11.628;2023-01-26T00:47:42;26.15;;;10.88;;
25780;SDS011;13626;48.128;11.628;2023-01-26T00:50:10;20.50;;;9.60;;
25780;SDS011;13626;48.128;11.628;2023-01-26T00:52:37;23.42;;;9.52;;
25780;SDS011;13626;48.128;11.628;2023-01-26T00:55:05;24.38;;;10.73;;
25780;SDS011;13626;48.128;11.628;2023-01-26T00:57:32;19.30;;;9.15;;
25780;SDS011;13626;48.128;11.628;2023-01-26T00:59:59;19.85;;;9.10;;
25780;SDS011;13626;48.128;11.628;2023-01-26T01:02:26;26.45;;;11.05;;
25780;SDS011;13626;48.128;11.628;2023-01-26T01:04:53;22.35;;;9.05;;
25780;SDS011;13626;48.128;11.628;2023-01-26T01:07:21;23.00;;;10.23;;
25780;SDS011;13626;48.128;11.628;2023-01-26T01:09:48;21.63;;;9.40;;
25780;SDS011;13626;48.128;11.628;2023-01-26T01:12:15;23.85;;;11.05;;
25780;SDS011;13626;48.128;11.628;2023-01-26T01:14:42;26.08;;;9.60;;
25780;SDS011;13626;48.128;11.628;2023-01-26T01:17:09;22.45;;;10.23;;
25780;SDS011;13626;48.128;11.628;2023-01-26T01:19:37;24.95;;;10.60;;
25780;SDS011;13626;48.128;11.628;2023-01-26T01:22:05;24.80;;;11.40;;
25780;SDS011;13626;48.128;11.628;2023-01-26T01:24:32;25.08;;;10.10;;
25780;SDS011;13626;48.128;11.628;2023-01-26T01:27:00;26.10;;;10.90;;
25780;SDS011;13626;48.128;11.628;2023-01-26T01:29:27;24.67;;;9.85;;
25780;SDS011;13626;48.128;11.628;2023-01-26T01:31:54;23.52;;;9.90;;
25780;SDS011;13626;48.128;11.628;2023-01-26T01:34:22;20.63;;;10.00;;
25780;SDS011;13626;48.128;11.628;2023-01-26T01:36:49;20.42;;;9.32;;
25780;SDS011;13626;48.128;11.628;2023-01-26T01:39:17;20.58;;;9.68;;
25780;SDS011;13626;48.128;11.628;2023-01-26T01:41:44;19.33;;;9.27;;
25780;SDS011;13626;48.128;11.628;2023-01-26T01:46:39;21.38;;;9.75;;
25780;SDS011;13626;48.128;11.628;2023-01-26T01:49:16;23.00;;;9.38;;
25780;SDS011;13626;48.128;11.628;2023-01-26T01:51:47;21.80;;;9.82;;
25780;SDS011;13626;48.128;11.628;2023-01-26T01:54:17;17.98;;;8.95;;
25780;SDS011;13626;48.128;11.628;2023-01-26T01:56:47;17.88;;;8.88;;
25780;SDS011;13626;48.128;11.628;2023-01-26T01:59:15;23.77;;;10.38;;
25780;SDS011;13626;48.128;11.628;2023-01-26T02:01:46;18.13;;;9.18;;
25780;SDS011;13626;48.128;11.628;2023-01-26T02:04:14;22.85;;;9.85;;
25780;SDS011;13626;48.128;11.628;2023-01-26T02:06:45;21.52;;;9.43;;
25780;SDS011;13626;48.128;11.628;2023-01-26T02:09:13;18.13;;;8.88;;
25780;SDS011;13626;48.128;11.628;2023-01-26T02:12:02;22.17;;;9.52;;
25780;SDS011;13626;48.128;11.628;2023-01-26T02:14:31;18.65;;;8.70;;
25780;SDS011;13626;48.128;11.628;2023-01-26T02:16:58;22.73;;;9.48;;
25780;SDS011;13626;48.128;11.628;2023-01-26T02:19:38;22.65;;;10.20;;
25780;SDS011;13626;48.128;11.628;2023-01-26T02:22:16;23.38;;;9.48;;
25780;SDS011;13626;48.128;11.628;2023-01-26T02:24:47;22.27;;;10.20;;
25780;SDS011;13626;48.128;11.628;2023-01-26T02:27:15;24.50;;;10.93;;
25780;SDS011;13626;48.128;11.628;2023-01-26T02:29:42;20.63;;;9.60;;
25780;SDS011;13626;48.128;11.628;2023-01-26T02:32:09;20.23;;;9.93;;
25780;SDS011;13626;48.128;11.628;2023-01-26T02:34:36;25.75;;;10.85;;
25780;SDS011;13626;48.128;11.628;2023-01-26T02:37:04;21.13;;;9.07;;
25780;SDS011;13626;48.128;11.628;2023-01-26T02:39:40;21.42;;;8.98;;
25780;SDS011;13626;48.128;11.628;2023-01-26T02:42:10;20.70;;;10.07;;
25780;SDS011;13626;48.128;11.628;2023-01-26T02:44:56;25.27;;;10.43;;
25780;SDS011;13626;48.128;11.628;2023-01-26T02:47:23;23.35;;;8.80;;
25780;SDS011;13626;48.128;11.628;2023-01-26T02:49:50;21.20;;;9.15;;
25780;SDS011;13626;48.128;11.628;2023-01-26T02:52:18;19.30;;;8.93;;
25780;SDS011;13626;48.128;11.628;2023-01-26T02:54:46;16.90;;;8.10;;
25780;SDS011;13626;48.128;11.628;2023-01-26T02:57:32;27.23;;;10.63;;
25780;SDS011;13626;48.128;11.628;2023-01-26T03:00:00;20.75;;;8.98;;
25780;SDS011;13626;48.128;11.628;2023-01-26T03:02:28;19.80;;;9.73;;
25780;SDS011;13626;48.128;11.628;2023-01-26T03:04:55;22.88;;;10.30;;
25780;SDS011;13626;48.128;11.628;2023-01-26T03:07:22;19.75;;;8.77;;
25780;SDS011;13626;48.128;11.628;2023-01-26T03:09:49;19.15;;;8.95;;
25780;SDS011;13626;48.128;11.628;2023-01-26T03:12:16;18.88;;;9.07;;
25780;SDS011;13626;48.128;11.628;2023-01-26T03:14:44;21.73;;;9.57;;
25780;SDS011;13626;48.128;11.628;2023-01-26T03:17:11;23.33;;;10.43;;
25780;SDS011;13626;48.128;11.628;2023-01-26T03:19:38;18.55;;;8.68;;
25780;SDS011;13626;48.128;11.628;2023-01-26T03:22:24;19.85;;;9.52;;
25780;SDS011;13626;48.128;11.628;2023-01-26T03:25:10;20.05;;;8.80;;
25780;SDS011;13626;48.128;11.628;2023-01-26T03:27:56;18.67;;;8.80;;
25780;SDS011;13626;48.128;11.628;2023-01-26T03:30:23;21.15;;;8.98;;
25780;SDS011;13626;48.128;11.628;2023-01-26T03:32:50;20.00;;;8.77;;
25780;SDS011;13626;48.128;11.628;2023-01-26T03:35:17;18.77;;;8.77;;
25780;SDS011;13626;48.128;11.628;2023-01-26T03:37:48;18.48;;;8.98;;
25780;SDS011;13626;48.128;11.628;2023-01-26T03:40:20;20.92;;;8.98;;
25780;SDS011;13626;48.128;11.628;2023-01-26T03:43:08;20.75;;;9.02;;
25780;SDS011;13626;48.128;11.628;2023-01-26T03:45:54;19.65;;;8.57;;
25780;SDS011;13626;48.128;11.628;2023-01-26T03:48:40;18.80;;;9.32;;
25780;SDS011;13626;48.128;11.628;2023-01-26T03:51:26;19.52;;;8.80;;
25780;SDS011;13626;48.128;11.628;2023-01-26T03:54:12;20.70;;;8.48;;
25780;SDS011;13626;48.128;11.628;2023-01-26T03:56:58;18.30;;;8.15;;
25780;SDS011;13626;48.128;11.628;2023-01-26T03:59:25;20.42;;;9.27;;
25780;SDS011;13626;48.128;11.628;2023-01-26T04:02:09;19.73;;;9.35;;
25780;SDS011;13626;48.128;11.628;2023-01-26T04:04:56;18.80;;;8.57;;
25780;SDS011;13626;48.128;11.628;2023-01-26T04:07:42;16.55;;;8.10;;
25780;SDS011;13626;48.128;11.628;2023-01-26T04:10:28;17.67;;;8.45;;
25780;SDS011;13626;48.128;11.628;2023-01-26T04:12:55;20.55;;;9.02;;
25780;SDS011;13626;48.128;11.628;2023-01-26T04:15:41;21.20;;;9.50;;
25780;SDS011;13626;48.128;11.628;2023-01-26T04:18:28;21.45;;;9.45;;
25780;SDS011;13626;48.128;11.628;2023-01-26T04:21:14;20.00;;;8.23;;
25780;SDS011;13626;48.128;11.628;2023-01-26T04:23:59;18.73;;;8.40;;
25780;SDS011;13626;48.128;11.628;2023-01-26T04:26:30;19.75;;;9.45;;
25780;SDS011;13626;48.128;11.628;2023-01-26T04:29:11;18.48;;;8.05;;
25780;SDS011;13626;48.128;11.628;2023-01-26T04:31:39;17.67;;;8.68;;
25780;SDS011;13626;48.128;11.628;2023-01-26T04:34:11;23.17;;;9.18;;
25780;SDS011;13626;48.128;11.628;2023-01-26T04:36:38;19.95;;;9.70;;
25780;SDS011;13626;48.128;11.628;2023-01-26T04:39:05;19.13;;;9.20;;
25780;SDS011;13626;48.128;11.628;2023-01-26T04:41:33;21.95;;;9.23;;
25780;SDS011;13626;48.128;11.628;2023-01-26T04:44:00;22.42;;;8.82;;
25780;SDS011;13626;48.128;11.628;2023-01-26T04:46:28;17.63;;;8.35;;
25780;SDS011;13626;48.128;11.628;2023-01-26T04:48:55;19.88;;;8.90;;
25780;SDS011;13626;48.128;11.628;2023-01-26T04:51:22;16.35;;;8.43;;
25780;SDS011;13626;48.128;11.628;2023-01-26T04:53:49;17.38;;;8.20;;
25780;SDS011;13626;48.128;11.628;2023-01-26T04:56:21;19.92;;;8.88;;
25780;SDS011;13626;48.128;11.628;2023-01-26T04:58:49;18.40;;;8.15;;
25780;SDS011;13626;48.128;11.628;2023-01-26T05:01:17;18.90;;;9.23;;
25780;SDS011;13626;48.128;11.628;2023-01-26T05:03:44;18.70;;;8.07;;
25780;SDS011;13626;48.128;11.628;2023-01-26T05:06:11;18.17;;;8.07;;
25780;SDS011;13626;48.128;11.628;2023-01-26T05:08:38;18.55;;;8.90;;
25780;SDS011;13626;48.128;11.628;2023-01-26T05:11:05;23.83;;;8.35;;
25780;SDS011;13626;48.128;11.628;2023-01-26T05:13:32;20.15;;;8.73;;
25780;SDS011;13626;48.128;11.628;2023-01-26T05:16:01;20.05;;;8.63;;
25780;SDS011;13626;48.128;11.628;2023-01-26T05:18:29;18.52;;;8.85;;
25780;SDS011;13626;48.128;11.628;2023-01-26T05:20:56;22.45;;;9.02;;
25780;SDS011;13626;48.128;11.628;2023-01-26T05:23:23;19.35;;;9.02;;
25780;SDS011;13626;48.128;11.628;2023-01-26T05:25:51;18.85;;;8.40;;
25780;SDS011;13626;48.128;11.628;2023-01-26T05:28:18;21.30;;;9.13;;
25780;SDS011;13626;48.128;11.628;2023-01-26T05:30:45;23.27;;;9.07;;
25780;SDS011;13626;48.128;11.628;2023-01-26T05:33:13;17.17;;;8.50;;
25780;SDS011;13626;48.128;11.628;2023-01-26T05:35:41;16.98;;;8.18;;
25780;SDS011;13626;48.128;11.628;2023-01-26T05:38:08;19.85;;;8.50;;
25780;SDS011;13626;48.128;11.628;2023-01-26T05:40:35;16.35;;;7.72;;
25780;SDS011;13626;48.128;11.628;2023-01-26T05:43:02;17.38;;;8.05;;
25780;SDS011;13626;48.128;11.628;2023-01-26T05:45:30;19.05;;;8.82;;
25780;SDS011;13626;48.128;11.628;2023-01-26T05:47:57;19.05;;;8.90;;
25780;SDS011;13626;48.128;11.628;2023-01-26T05:50:24;17.35;;;8.45;;
25780;SDS011;13626;48.128;11.628;2023-01-26T05:52:51;20.27;;;8.75;;
25780;SDS011;13626;48.128;11.628;2023-01-26T05:55:18;19.23;;;8.90;;
25780;SDS011;13626;48.128;11.628;2023-01-26T05:57:46;19.08;;;8.70;;
25780;SDS011;13626;48.128;11.628;2023-01-26T06:00:13;22.35;;;10.15;;
25780;SDS011;13626;48.128;11.628;2023-01-26T06:02:40;20.67;;;9.55;;
25780;SDS011;13626;48.128;11.628;2023-01-26T06:05:08;21.65;;;9.80;;
25780;SDS011;13626;48.128;11.628;2023-01-26T06:07:35;19.75;;;9.25;;
25780;SDS011;13626;48.128;11.628;2023-01-26T06:10:03;18.73;;;9.27;;
25780;SDS011;13626;48.128;11.628;2023-01-26T06:12:30;23.55;;;10.45;;
25780;SDS011;13626;48.128;11.628;2023-01-26T06:15:01;20.75;;;8.68;;
25780;SDS011;13626;48.128;11.628;2023-01-26T06:17:28;22.30;;;9.48;;
25780;SDS011;13626;48.128;11.628;2023-01-26T06:19:55;23.35;;;9.75;;
25780;SDS011;13626;48.128;11.628;2023-01-26T06:22:23;21.38;;;9.25;;
25780;SDS011;13626;48.128;11.628;2023-01-26T06:24:50;23.77;;;9.75;;
25780;SDS011;13626;48.128;11.628;2023-01-26T06:27:17;19.05;;;8.90;;
25780;SDS011;13626;48.128;11.628;2023-01-26T06:29:46;20.92;;;9.35;;
25780;SDS011;13626;48.128;11.628;2023-01-26T06:32:13;21.10;;;9.95;;
25780;SDS011;13626;48.128;11.628;2023-01-26T06:34:41;24.52;;;9.30;;
25780;SDS011;13626;48.128;11.628;2023-01-26T06:37:09;27.17;;;10.27;;
25780;SDS011;13626;48.128;11.628;2023-01-26T06:39:36;23.73;;;10.10;;
25780;SDS011;13626;48.128;11.628;2023-01-26T06:42:03;26.48;;;10.90;;
25780;SDS011;13626;48.128;11.628;2023-01-26T06:44:31;25.77;;;9.55;;
25780;SDS011;13626;48.128;11.628;2023-01-26T06:46:58;23.73;;;10.98;;
25780;SDS011;13626;48.128;11.628;2023-01-26T06:49:25;25.20;;;10.38;;
25780;SDS011;13626;48.128;11.628;2023-01-26T06:51:54;23.17;;;9.68;;
25780;SDS011;13626;48.128;11.628;2023-01-26T06:54:21;20.25;;;9.32;;
25780;SDS011;13626;48.128;11.628;2023-01-26T06:56:49;20.42;;;9.90;;
25780;SDS011;13626;48.128;11.628;2023-01-26T06:59:16;21.38;;;9.32;;
25780;SDS011;13626;48.128;11.628;2023-01-26T07:01:44;17.80;;;8.90;;
25780;SDS011;13626;48.128;11.628;2023-01-26T07:04:15;21.58;;;9.73;;
25780;SDS011;13626;48.128;11.628;2023-01-26T07:06:42;19.73;;;8.93;;
25780;SDS011;13626;48.128;11.628;2023-01-26T07:09:09;18.90;;;9.40;;
25780;SDS011;13626;48.128;11.628;2023-01-26T07:11:36;16.73;;;8.20;;
25780;SDS011;13626;48.128;11.628;2023-01-26T07:14:04;15.10;;;8.20;;
25780;SDS011;13626;48.128;11.628;2023-01-26T07:16:31;14.32;;;6.75;;
25780;SDS011;13626;48.128;11.628;2023-01-26T07:18:59;12.52;;;6.93;;
25780;SDS011;13626;48.128;11.628;2023-01-26T07:21:26;18.83;;;8.23;;
25780;SDS011;13626;48.128;11.628;2023-01-26T07:23:54;22.50;;;9.80;;
25780;SDS011;13626;48.128;11.628;2023-01-26T07:26:21;25.00;;;9.80;;
25780;SDS011;13626;48.128;11.628;2023-01-26T07:28:48;22.92;;;9.15;;
25780;SDS011;13626;48.128;11.628;2023-01-26T07:31:15;21.42;;;9.13;;
25780;SDS011;13626;48.128;11.628;2023-01-26T07:33:43;18.95;;;9.18;;
25780;SDS011;13626;48.128;11.628;2023-01-26T07:36:10;17.35;;;8.90;;
25780;SDS011;13626;48.128;11.628;2023-01-26T07:38:37;18.10;;;9.00;;
25780;SDS011;13626;48.128;11.628;2023-01-26T07:41:08;17.80;;;8.63;;
25780;SDS011;13626;48.128;11.628;2023-01-26T07:43:38;17.25;;;8.52;;
25780;SDS011;13626;48.128;11.628;2023-01-26T07:46:06;16.52;;;8.18;;
25780;SDS011;13626;48.128;11.628;2023-01-26T07:48:35;17.58;;;8.15;;
25780;SDS011;13626;48.128;11.628;2023-01-26T07:51:03;14.70;;;7.97;;
25780;SDS011;13626;48.128;11.628;2023-01-26T07:53:30;17.00;;;7.90;;
25780;SDS011;13626;48.128;11.628;2023-01-26T07:56:09;14.85;;;7.70;;
25780;SDS011;13626;48.128;11.628;2023-01-26T07:58:37;13.13;;;7.32;;
25780;SDS011;13626;48.128;11.628;2023-01-26T08:01:13;12.27;;;5.70;;
25780;SDS011;13626;48.128;11.628;2023-01-26T08:03:41;13.60;;;6.05;;
25780;SDS011;13626;48.128;11.628;2023-01-26T08:06:10;11.05;;;6.72;;
25780;SDS011;13626;48.128;11.628;2023-01-26T08:08:41;11.60;;;5.78;;
25780;SDS011;13626;48.128;11.628;2023-01-26T08:11:08;10.02;;;4.95;;
25780;SDS011;13626;48.128;11.628;2023-01-26T08:13:36;10.95;;;5.78;;
25780;SDS011;13626;48.128;11.628;2023-01-26T08:16:04;13.93;;;5.50;;
25780;SDS011;13626;48.128;11.628;2023-01-26T08:18:34;9.45;;;4.97;;
25780;SDS011;13626;48.128;11.628;2023-01-26T08:21:01;9.48;;;4.75;;
25780;SDS011;13626;48.128;11.628;2023-01-26T08:23:29;8.00;;;4.38;;
25780;SDS011;13626;48.128;11.628;2023-01-26T08:26:00;11.60;;;5.25;;
25780;SDS011;13626;48.128;11.628;2023-01-26T08:28:27;12.38;;;5.88;;
25780;SDS011;13626;48.128;11.628;2023-01-26T08:30:55;14.40;;;6.82;;
25780;SDS011;13626;48.128;11.628;2023-01-26T08:33:22;14.88;;;7.50;;
25780;SDS011;13626;48.128;11.628;2023-01-26T08:35:49;16.42;;;8.18;;
25780;SDS011;13626;48.128;11.628;2023-01-26T08:38:16;15.85;;;7.60;;
25780;SDS011;13626;48.128;11.628;2023-01-26T08:40:44;15.90;;;7.45;;
25780;SDS011;13626;48.128;11.628;2023-01-26T08:43:16;17.52;;;8.52;;
25780;SDS011;13626;48.128;11.628;2023-01-26T08:45:45;18.10;;;8.68;;
25780;SDS011;13626;48.128;11.628;2023-01-26T08:48:12;16.90;;;8.02;;
25780;SDS011;13626;48.128;11.628;2023-01-26T08:50:40;12.18;;;6.00;;
25780;SDS011;13626;48.128;11.628;2023-01-26T08:53:07;12.27;;;6.32;;
25780;SDS011;13626;48.128;11.628;2023-01-26T08:55:34;11.90;;;6.78;;
25780;SDS011;13626;48.128;11.628;2023-01-26T08:58:02;11.95;;;6.47;;
25780;SDS011;13626;48.128;11.628;2023-01-26T09:00:29;11.23;;;5.88;;
25780;SDS011;13626;48.128;11.628;2023-01-26T09:02:57;10.68;;;5.82;;
25780;SDS011;13626;48.128;11.628;2023-01-26T09:05:25;11.68;;;6.13;;
25780;SDS011;13626;48.128;11.628;2023-01-26T09:07:53;13.15;;;6.90;;
25780;SDS011;13626;48.128;11.628;2023-01-26T09:10:20;16.45;;;6.65;;
25780;SDS011;13626;48.128;11.628;2023-01-26T09:12:47;13.57;;;6.93;;
25780;SDS011;13626;48.128;11.628;2023-01-26T09:15:14;13.38;;;6.75;;
25780;SDS011;13626;48.128;11.628;2023-01-26T09:17:41;21.17;;;9.40;;
25780;SDS011;13626;48.128;11.628;2023-01-26T09:20:09;19.50;;;9.02;;
25780;SDS011;13626;48.128;11.628;2023-01-26T09:22:37;18.90;;;9.75;;
25780;SDS011;13626;48.128;11.628;2023-01-26T09:25:04;18.98;;;8.63;;
25780;SDS011;13626;48.128;11.628;2023-01-26T09:27:32;21.05;;;9.18;;
25780;SDS011;13626;48.128;11.628;2023-01-26T09:29:59;17.90;;;8.73;;
25780;SDS011;13626;48.128;11.628;2023-01-26T09:32:26;17.98;;;8.52;;
25780;SDS011;13626;48.128;11.628;2023-01-26T09:34:53;17.33;;;9.38;;
25780;SDS011;13626;48.128;11.628;2023-01-26T09:37:21;18.67;;;8.95;;
25780;SDS011;13626;48.128;11.628;2023-01-26T09:39:48;18.23;;;9.05;;
25780;SDS011;13626;48.128;11.628;2023-01-26T09:50:47;17.70;;;8.63;;
25780;SDS011;13626;48.128;11.628;2023-01-26T09:55:39;17.95;;;9.13;;
25780;SDS011;13626;48.128;11.628;2023-01-26T10:00:54;20.50;;;8.52;;
25780;SDS011;13626;48.128;11.628;2023-01-26T10:08:19;18.23;;;9.25;;
25780;SDS011;13626;48.128;11.628;2023-01-26T10:10:56;18.55;;;8.98;;
25780;SDS011;13626;48.128;11.628;2023-01-26T10:13:24;15.05;;;7.97;;
25780;SDS011;13626;48.128;11.628;2023-01-26T10:15:57;16.92;;;8.50;;
25780;SDS011;13626;48.128;11.628;2023-01-26T10:18:34;18.98;;;8.20;;
25780;SDS011;13626;48.128;11.628;2023-01-26T10:21:03;15.73;;;8.15;;
25780;SDS011;13626;48.128;11.628;2023-01-26T10:23:32;17.30;;;8.18;;
25780;SDS011;13626;48.128;11.628;2023-01-26T10:26:08;21.45;;;9.52;;
25780;SDS011;13626;48.128;11.628;2023-01-26T10:28:37;24.52;;;9.48;;
25780;SDS011;13626;48.128;11.628;2023-01-26T10:31:07;18.90;;;9.00;;
25780;SDS011;13626;48.128;11.628;2023-01-26T10:33:38;20.05;;;8.68;;
25780;SDS011;13626;48.128;11.628;2023-01-26T10:36:08;22.02;;;9.13;;
25780;SDS011;13626;48.128;11.628;2023-01-26T10:41:04;19.40;;;9.32;;
25780;SDS011;13626;48.128;11.628;2023-01-26T10:43:33;16.92;;;8.63;;
25780;SDS011;13626;48.128;11.628;2023-01-26T10:46:04;20.25;;;9.00;;
25780;SDS011;13626;48.128;11.628;2023-01-26T10:48:32;21.65;;;9.13;;
25780;SDS011;13626;48.128;11.628;2023-01-26T10:51:15;18.52;;;9.32;;
25780;SDS011;13626;48.128;11.628;2023-01-26T10:53:42;21.65;;;8.85;;
25780;SDS011;13626;48.128;11.628;2023-01-26T10:56:13;21.58;;;9.18;;
25780;SDS011;13626;48.128;11.628;2023-01-26T10:58:43;19.25;;;9.43;;
25780;SDS011;13626;48.128;11.628;2023-01-26T11:01:13;20.13;;;9.43;;
25780;SDS011;13626;48.128;11.628;2023-01-26T11:03:41;21.45;;;9.27;;
25780;SDS011;13626;48.128;11.628;2023-01-26T11:06:13;21.42;;;9.43;;
25780;SDS011;13626;48.128;11.628;2023-01-26T11:08:40;21.20;;;9.18;;
25780;SDS011;13626;48.128;11.628;2023-01-26T11:11:24;22.40;;;9.40;;
25780;SDS011;13626;48.128;11.628;2023-01-26T11:16:49;21.23;;;9.30;;
25780;SDS011;13626;48.128;11.628;2023-01-26T11:19:25;21.88;;;9.20;;
25780;SDS011;13626;48.128;11.628;2023-01-26T11:30:12;19.95;;;9.13;;
25780;SDS011;13626;48.128;11.628;2023-01-26T11:33:02;18.92;;;8.85;;
25780;SDS011;13626;48.128;11.628;2023-01-26T11:49:28;19.58;;;9.68;;
25780;SDS011;13626;48.128;11.628;2023-01-26T11:52:13;16.52;;;7.97;;
25780;SDS011;13626;48.128;11.628;2023-01-26T11:57:25;21.00;;;10.60;;
25780;SDS011;13626;48.128;11.628;2023-01-26T12:02:30;20.90;;;8.55;;
25780;SDS011;13626;48.128;11.628;2023-01-26T12:04:59;20.77;;;9.20;;
25780;SDS011;13626;48.128;11.628;2023-01-26T12:08:15;20.17;;;9.13;;
25780;SDS011;13626;48.128;11.628;2023-01-26T12:13:15;20.58;;;8.90;;
25780;SDS011;13626;48.128;11.628;2023-01-26T12:15:43;18.50;;;8.68;;
25780;SDS011;13626;48.128;11.628;2023-01-26T12:18:15;17.45;;;8.77;;
25780;SDS011;13626;48.128;11.628;2023-01-26T12:25:57;16.77;;;8.30;;
25780;SDS011;13626;48.128;11.628;2023-01-26T12:28:41;17.38;;;8.00;;
25780;SDS011;13626;48.128;11.628;2023-01-26T12:31:19;21.55;;;9.15;;
25780;SDS011;13626;48.128;11.628;2023-01-26T12:33:50;21.48;;;9.52;;
25780;SDS011;13626;48.128;11.628;2023-01-26T12:46:50;18.00;;;7.85;;
25780;SDS011;13626;48.128;11.628;2023-01-26T12:49:31;18.00;;;8.55;;
25780;SDS011;13626;48.128;11.628;2023-01-26T12:52:14;20.67;;;8.90;;
25780;SDS011;13626;48.128;11.628;2023-01-26T12:54:44;18.15;;;8.73;;
25780;SDS011;13626;48.128;11.628;2023-01-26T12:57:14;19.45;;;8.30;;
25780;SDS011;13626;48.128;11.628;2023-01-26T12:59:42;23.33;;;10.18;;
25780;SDS011;13626;48.128;11.628;2023-01-26T13:04:41;21.85;;;9.77;;
25780;SDS011;13626;48.128;11.628;2023-01-26T13:15:22;22.85;;;9.60;;
25780;SDS011;13626;48.128;11.628;2023-01-26T13:20:22;22.67;;;9.70;;
25780;SDS011;13626;48.128;11.628;2023-01-26T13:22:49;21.20;;;9.40;;
25780;SDS011;13626;48.128;11.628;2023-01-26T13:25:18;25.42;;;10.05;;
25780;SDS011;13626;48.128;11.628;2023-01-26T13:27:53;22.83;;;10.30;;
25780;SDS011;13626;48.128;11.628;2023-01-26T13:35:21;23.40;;;9.40;;
25780;SDS011;13626;48.128;11.628;2023-01-26T13:40:20;20.88;;;9.30;;
25780;SDS011;13626;48.128;11.628;2023-01-26T13:42:51;20.52;;;8.52;;
25780;SDS011;13626;48.128;11.628;2023-01-26T13:48:12;23.00;;;9.70;;
25780;SDS011;13626;48.128;11.628;2023-01-26T13:50:40;19.98;;;8.85;;
25780;SDS011;13626;48.128;11.628;2023-01-26T13:53:25;17.90;;;8.90;;
25780;SDS011;13626;48.128;11.628;2023-01-26T13:55:55;18.63;;;8.45;;
25780;SDS011;13626;48.128;11.628;2023-01-26T13:58:24;18.58;;;8.65;;
25780;SDS011;13626;48.128;11.628;2023-01-26T14:03:25;22.85;;;9.35;;
25780;SDS011;13626;48.128;11.628;2023-01-26T14:05:54;19.42;;;9.40;;
25780;SDS011;13626;48.128;11.628;2023-01-26T14:08:22;21.13;;;9.18;;
25780;SDS011;13626;48.128;11.628;2023-01-26T14:10:50;21.80;;;9.60;;
25780;SDS011;13626;48.128;11.628;2023-01-26T14:13:29;20.73;;;8.95;;
25780;SDS011;13626;48.128;11.628;2023-01-26T14:15:58;18.73;;;8.15;;
25780;SDS011;13626;48.128;11.628;2023-01-26T14:18:25;21.15;;;9.00;;
25780;SDS011;13626;48.128;11.628;2023-01-26T14:21:12;19.20;;;8.93;;
25780;SDS011;13626;48.128;11.628;2023-01-26T14:23:40;18.30;;;8.38;;
25780;SDS011;13626;48.128;11.628;2023-01-26T14:28:40;20.08;;;8.95;;
25780;SDS011;13626;48.128;11.628;2023-01-26T14:31:29;21.88;;;9.32;;
25780;SDS011;13626;48.128;11.628;2023-01-26T14:33:56;20.20;;;8.98;;
25780;SDS011;13626;48.128;11.628;2023-01-26T14:36:25;18.63;;;8.73;;
25780;SDS011;13626;48.128;11.628;2023-01-26T14:38:54;17.65;;;8.57;;
25780;SDS011;13626;48.128;11.628;2023-01-26T14:41:24;20.60;;;9.05;;
25780;SDS011;13626;48.128;11.628;2023-01-26T14:43:54;20.48;;;8.98;;
25780;SDS011;13626;48.128;11.628;2023-01-26T14:49:00;20.42;;;8.82;;
25780;SDS011;13626;48.128;11.628;2023-01-26T14:51:32;20.98;;;8.80;;
25780;SDS011;13626;48.128;11.628;2023-01-26T14:54:02;15.88;;;8.02;;
25780;SDS011;13626;48.128;11.628;2023-01-26T14:56:31;18.95;;;8.07;;
25780;SDS011;13626;48.128;11.628;2023-01-26T14:58:59;20.42;;;8.38;;
25780;SDS011;13626;48.128;11.628;2023-01-26T15:01:27;17.98;;;9.02;;
25780;SDS011;13626;48.128;11.628;2023-01-26T15:03:56;17.40;;;8.30;;
25780;SDS011;13626;48.128;11.628;2023-01-26T15:06:25;20.10;;;7.95;;
25780;SDS011;13626;48.128;11.628;2023-01-26T15:08:55;22.63;;;9.18;;
25780;SDS011;13626;48.128;11.628;2023-01-26T15:11:24;20.65;;;9.48;;
25780;SDS011;13626;48.128;11.628;2023-01-26T15:15:11;17.25;;;8.02;;
25780;SDS011;13626;48.128;11.628;2023-01-26T15:17:08;20.08;;;8.95;;
25780;SDS011;13626;48.128;11.628;2023-01-26T15:19:52;18.48;;;9.48;;
25780;SDS011;13626;48.128;11.628;2023-01-26T15:22:20;19.50;;;8.93;;
25780;SDS011;13626;48.128;11.628;2023-01-26T15:25:04;21.85;;;9.43;;
25780;SDS011;13626;48.128;11.628;2023-01-26T15:27:33;21.67;;;9.05;;
25780;SDS011;13626;48.128;11.628;2023-01-26T15:30:01;23.50;;;10.05;;
25780;SDS011;13626;48.128;11.628;2023-01-26T15:32:30;22.52;;;9.70;;
25780;SDS011;13626;48.128;11.628;2023-01-26T15:35:02;20.73;;;9.10;;
25780;SDS011;13626;48.128;11.628;2023-01-26T15:37:31;20.48;;;9.63;;
25780;SDS011;13626;48.128;11.628;2023-01-26T15:39:58;21.05;;;9.32;;
25780;SDS011;13626;48.128;11.628;2023-01-26T15:42:26;21.23;;;8.93;;
25780;SDS011;13626;48.128;11.628;2023-01-26T15:44:56;21.35;;;8.40;;
25780;SDS011;13626;48.128;11.628;2023-01-26T15:47:23;21.40;;;9.90;;
25780;SDS011;13626;48.128;11.628;2023-01-26T15:49:50;20.85;;;9.40;;
25780;SDS011;13626;48.128;11.628;2023-01-26T15:52:21;24.58;;;10.63;;
25780;SDS011;13626;48.128;11.628;2023-01-26T15:54:51;23.67;;;9.90;;
25780;SDS011;13626;48.128;11.628;2023-01-26T15:57:19;25.98;;;10.30;;
25780;SDS011;13626;48.128;11.628;2023-01-26T15:59:46;21.75;;;9.60;;
25780;SDS011;13626;48.128;11.628;2023-01-26T16:02:14;23.92;;;10.07;;
25780;SDS011;13626;48.128;11.628;2023-01-26T16:04:42;30.08;;;9.52;;
25780;SDS011;13626;48.128;11.628;2023-01-26T16:07:13;25.20;;;10.18;;
25780;SDS011;13626;48.128;11.628;2023-01-26T16:09:40;26.90;;;9.80;;
25780;SDS011;13626;48.128;11.628;2023-01-26T16:12:09;24.67;;;10.70;;
25780;SDS011;13626;48.128;11.628;2023-01-26T16:14:47;23.52;;;10.20;;
25780;SDS011;13626;48.128;11.628;2023-01-26T16:17:15;24.00;;;10.52;;
25780;SDS011;13626;48.128;11.628;2023-01-26T16:19:43;22.13;;;9.77;;
25780;SDS011;13626;48.128;11.628;2023-01-26T16:22:11;24.25;;;9.82;;